Eastmont, Washington
Current Conditions -  °F | °C
As of 1:19 AM on Friday 28 Nov 2014 (Local Time) from KPAE Reporting Station
Light Rain Light Rain  
Wind Chill: 53°   Ceiling: 1200
Heat Index: 53°   Visibility: 8mi
Dew Point: 49°   Wind: 25mph
Humidity: 86%   Direction: 190°S
Pressure: 29.61"   Gusts: 31mph
Location:  47.9027°N, 122.261°W
Report Text: KPAE 280919Z 19022G27KT 8SM -RA BKN012 OVC020 12/09 A2961 RMK AO2 PK WND 20033/0901 RAB17 P0000 T01170094
Loading
Personal Weather Stations






























Interactive Weather Map New forecast layout! Learn more

10-Day Weather Forecast

Advertisements
Track Severe Weather on mobile